Time;durP1;ratioP1;P1;durP2;ratioP2;P2;SDS_P1;SDS_P2;PMS_P1;PMS_P2;Temp;Humidity;BMP_temperature;BMP_pressure;BME280_temperature;BME280_humidity;BME280_pressure;Samples;Min_cycle;Max_cycle;Signal;HPM_P1;HPM_P2
2023/09/12 00:00:44;;;;;;;0.00;0.00;;;;;;;17.82;100.00;101123.56;5114306;28;20024;-49
2023/09/12 00:03:09;;;;;;;0.00;0.00;;;;;;;17.77;100.00;101136.59;5114582;27;20019;-49
2023/09/12 00:05:34;;;;;;;0.08;0.08;;;;;;;17.77;100.00;101136.59;5114390;28;20023;-46
2023/09/12 00:08:00;;;;;;;0.00;0.00;;;;;;;17.80;100.00;101140.97;5114468;28;20058;-47
2023/09/12 00:10:25;;;;;;;0.00;0.00;;;;;;;17.78;100.00;101154.84;5114150;28;20450;-50
2023/09/12 00:12:51;;;;;;;0.10;0.10;;;;;;;17.76;100.00;101148.75;5114571;28;20459;-47
2023/09/12 00:15:16;;;;;;;0.00;0.00;;;;;;;17.77;100.00;101154.84;5113132;28;20036;-47
2023/09/12 00:17:41;;;;;;;0.00;0.00;;;;;;;17.75;100.00;101147.03;5114318;28;20466;-51
2023/09/12 00:20:08;;;;;;;0.10;0.10;;;;;;;17.84;100.00;101153.13;5114418;28;20024;-49
2023/09/12 00:22:33;;;;;;;0.00;0.00;;;;;;;17.61;100.00;101152.16;5113789;28;20027;-48
2023/09/12 00:24:58;;;;;;;0.15;0.10;;;;;;;17.56;100.00;101147.81;5114396;28;20023;-50
2023/09/12 00:27:24;;;;;;;0.00;0.00;;;;;;;17.58;100.00;101151.28;5114217;28;20386;-50
2023/09/12 00:29:49;;;;;;;0.00;0.00;;;;;;;17.56;100.00;101153.88;5113791;28;20469;-46
2023/09/12 00:32:14;;;;;;;0.10;0.10;;;;;;;17.55;100.00;101148.66;5113707;28;20083;-47
2023/09/12 00:34:40;;;;;;;0.05;0.05;;;;;;;17.51;100.00;101152.13;5114241;28;20371;-47
2023/09/12 00:37:05;;;;;;;0.00;0.00;;;;;;;17.52;100.00;101148.63;5113784;28;20024;-45
2023/09/12 00:39:30;;;;;;;0.00;0.00;;;;;;;17.55;100.00;101153.88;5113831;28;20070;-48
2023/09/12 00:41:56;;;;;;;0.00;0.00;;;;;;;17.33;100.00;101145.91;5114162;28;20132;-49
2023/09/12 00:44:21;;;;;;;0.10;0.10;;;;;;;17.11;100.00;101145.75;5113417;28;20111;-50
2023/09/12 00:46:49;;;;;;;0.10;0.10;;;;;;;17.00;100.00;101142.19;5113678;28;20027;-49
2023/09/12 00:49:17;;;;;;;0.00;0.00;;;;;;;16.88;100.00;101149.91;5113483;28;20463;-46
2023/09/12 00:51:44;;;;;;;0.10;0.10;;;;;;;16.90;100.00;101151.69;5113890;28;20458;-48
2023/09/12 00:54:10;;;;;;;0.10;0.10;;;;;;;16.98;100.00;101151.75;5114012;28;20070;-47
2023/09/12 00:56:36;;;;;;;0.10;0.10;;;;;;;16.79;100.00;101148.94;5112705;28;20478;-49
2023/09/12 00:59:03;;;;;;;0.10;0.10;;;;;;;16.85;100.00;101142.94;5113743;28;20123;-46
2023/09/12 01:01:28;;;;;;;0.10;0.10;;;;;;;16.75;100.00;101144.56;5113583;28;20394;-45
2023/09/12 01:03:55;;;;;;;0.00;0.00;;;;;;;16.82;100.00;101134.22;5113065;28;20024;-48
2023/09/12 01:06:25;;;;;;;0.10;0.10;;;;;;;16.75;100.00;101138.50;5113162;28;20378;-48
2023/09/12 01:08:51;;;;;;;0.10;0.10;;;;;;;16.84;100.00;101129.91;5113796;28;20035;-46
2023/09/12 01:11:17;;;;;;;0.10;0.10;;;;;;;16.79;100.00;101133.31;5112775;28;20020;-47
2023/09/12 01:13:43;;;;;;;0.00;0.00;;;;;;;16.78;100.00;101136.81;5113282;28;20039;-49
2023/09/12 01:16:08;;;;;;;0.08;0.08;;;;;;;16.81;100.00;101132.47;5113396;28;20111;-50
2023/09/12 01:18:33;;;;;;;0.10;0.10;;;;;;;16.73;100.00;101128.09;5112686;28;20020;-49
2023/09/12 01:21:11;;;;;;;0.10;0.10;;;;;;;16.62;100.00;101129.72;5113330;28;20382;-49
2023/09/12 01:23:37;;;;;;;0.00;0.00;;;;;;;16.61;100.00;101130.56;5113669;28;20028;-46
2023/09/12 01:26:08;;;;;;;0.10;0.10;;;;;;;16.57;100.00;101131.41;5112096;28;20076;-46
2023/09/12 01:28:34;;;;;;;0.05;0.05;;;;;;;16.59;100.00;101130.56;5112836;28;20277;-50
2023/09/12 01:31:02;;;;;;;0.00;0.00;;;;;;;16.49;100.00;101127.84;5113295;28;20535;-48
2023/09/12 01:33:28;;;;;;;0.10;0.10;;;;;;;16.42;100.00;101127.81;5112623;28;20027;-51
2023/09/12 01:35:54;;;;;;;0.10;0.10;;;;;;;16.39;100.00;101122.56;5113068;28;20073;-48
2023/09/12 01:38:20;;;;;;;0.10;0.10;;;;;;;16.32;100.00;101125.97;5113004;28;20055;-48
2023/09/12 01:40:54;;;;;;;0.20;0.20;;;;;;;16.33;100.00;101132.03;5112324;28;20020;-46
2023/09/12 01:43:23;;;;;;;0.00;0.00;;;;;;;16.34;100.00;101133.78;5112814;28;20028;-46
2023/09/12 01:45:52;;;;;;;0.10;0.10;;;;;;;16.23;100.00;101125.84;5112549;28;20458;-48
2023/09/12 01:48:21;;;;;;;0.10;0.10;;;;;;;16.06;100.00;101123.06;5112834;28;20035;-46
2023/09/12 01:50:47;;;;;;;0.10;0.10;;;;;;;16.12;100.00;101124.00;5113280;28;20075;-51
2023/09/12 01:53:14;;;;;;;0.03;0.03;;;;;;;16.17;100.00;101125.81;5112368;28;20031;-48
2023/09/12 01:55:40;;;;;;;0.10;0.10;;;;;;;16.17;100.00;101129.25;5112802;28;20052;-46
2023/09/12 01:58:06;;;;;;;0.10;0.10;;;;;;;16.17;100.00;101125.81;5113065;28;20050;-45
2023/09/12 02:00:33;;;;;;;0.10;0.10;;;;;;;16.12;100.00;101121.41;5112424;28;20032;-51
2023/09/12 02:02:58;;;;;;;0.10;0.10;;;;;;;16.30;100.00;101122.47;5113011;28;20073;-48
2023/09/12 02:05:24;;;;;;;0.10;0.10;;;;;;;16.33;100.00;101119.88;5112946;28;20416;-46
2023/09/12 02:07:49;;;;;;;0.10;0.10;;;;;;;16.23;100.00;101120.63;5112622;28;20015;-47
2023/09/12 02:10:14;;;;;;;0.10;0.10;;;;;;;16.28;100.00;101116.38;5112453;28;20031;-47
2023/09/12 02:12:40;;;;;;;0.10;0.10;;;;;;;16.24;100.00;101122.41;5112899;28;20020;-46
2023/09/12 02:15:06;;;;;;;0.00;0.00;;;;;;;16.26;100.00;101118.09;5112635;28;20027;-48
2023/09/12 02:17:32;;;;;;;0.10;0.10;;;;;;;16.28;100.00;101118.97;5112673;28;20039;-47
2023/09/12 02:19:57;;;;;;;0.10;0.10;;;;;;;16.25;100.00;101111.16;5113023;28;20024;-49
2023/09/12 02:22:22;;;;;;;0.05;0.05;;;;;;;16.16;100.00;101111.06;5112269;28;20031;-49
2023/09/12 02:24:48;;;;;;;0.10;0.10;;;;;;;16.19;100.00;101114.56;5112587;28;20038;-46
2023/09/12 02:27:13;;;;;;;0.10;0.10;;;;;;;16.24;100.00;101110.28;5112420;28;20026;-50
2023/09/12 02:29:39;;;;;;;0.10;0.10;;;;;;;16.11;100.00;101122.28;5112474;28;20024;-47
2023/09/12 02:32:05;;;;;;;0.10;0.10;;;;;;;16.15;100.00;101119.69;5112631;28;20047;-48
2023/09/12 02:34:31;;;;;;;0.10;0.10;;;;;;;16.11;100.00;101129.19;5112437;28;20051;-46
2023/09/12 02:36:56;;;;;;;0.10;0.10;;;;;;;16.02;100.00;101134.28;5112889;28;20053;-49
2023/09/12 02:39:21;;;;;;;0.10;0.10;;;;;;;15.94;100.00;101129.00;5116161;28;20390;-50
2023/09/12 02:41:46;;;;;;;0.10;0.10;;;;;;;15.86;100.00;101125.44;5116257;28;20039;-51
2023/09/12 02:44:12;;;;;;;0.10;0.10;;;;;;;15.79;100.00;101130.53;5115406;28;20085;-47
2023/09/12 02:46:37;;;;;;;0.10;0.10;;;;;;;15.75;100.00;101126.16;5116300;28;20485;-47
2023/09/12 02:49:02;;;;;;;0.10;0.10;;;;;;;15.87;100.00;101121.97;5115881;28;20031;-49
2023/09/12 02:51:28;;;;;;;0.10;0.10;;;;;;;15.80;100.00;101123.59;5115921;28;20492;-49
2023/09/12 02:53:54;;;;;;;0.10;0.10;;;;;;;15.74;100.00;101121.81;5116058;28;20417;-48
2023/09/12 02:56:20;;;;;;;0.10;0.10;;;;;;;15.72;100.00;101114.84;5115092;28;20055;-47
2023/09/12 02:58:48;;;;;;;0.00;0.00;;;;;;;15.70;100.00;101119.13;5116111;28;20024;-49
2023/09/12 03:01:18;;;;;;;0.10;0.10;;;;;;;15.63;100.00;101113.00;5115621;28;20480;-51
2023/09/12 03:03:46;;;;;;;0.10;0.10;;;;;;;15.42;100.00;101118.78;5115530;28;20035;-51
2023/09/12 03:06:12;;;;;;;0.10;0.10;;;;;;;15.46;100.00;101124.03;5115504;28;20037;-46
2023/09/12 03:08:37;;;;;;;0.10;0.10;;;;;;;15.41;100.00;101122.22;5115856;28;20462;-48
2023/09/12 03:11:02;;;;;;;0.10;0.10;;;;;;;15.43;100.00;101126.59;5115349;28;20101;-50
2023/09/12 03:13:28;;;;;;;0.10;0.10;;;;;;;15.45;100.00;101124.91;5115141;28;20027;-49
2023/09/12 03:15:53;;;;;;;0.05;0.05;;;;;;;15.57;100.00;101121.59;5115945;28;20030;-49
2023/09/12 03:18:18;;;;;;;0.10;0.10;;;;;;;15.47;100.00;101123.16;5114822;28;20107;-50
2023/09/12 03:20:44;;;;;;;0.10;0.10;;;;;;;15.35;100.00;101119.53;5115494;28;20062;-50
2023/09/12 03:23:09;;;;;;;0.00;0.00;;;;;;;15.44;100.00;101120.53;5115755;28;20027;-49
2023/09/12 03:25:37;;;;;;;0.10;0.10;;;;;;;15.43;100.00;101113.59;5114734;28;20470;-50
2023/09/12 03:28:03;;;;;;;0.10;0.10;;;;;;;15.35;100.00;101101.34;5115301;28;20489;-49
2023/09/12 03:30:28;;;;;;;0.10;0.10;;;;;;;15.30;100.00;101104.75;5115167;27;20020;-50
2023/09/12 03:32:54;;;;;;;0.10;0.10;;;;;;;15.31;100.00;101110.81;5114786;28;20031;-47
2023/09/12 03:35:19;;;;;;;0.08;0.08;;;;;;;15.36;100.00;101103.09;5115061;28;20023;-50
2023/09/12 03:37:44;;;;;;;0.05;0.05;;;;;;;15.12;100.00;101100.19;5115425;28;20107;-51
2023/09/12 03:40:11;;;;;;;0.10;0.10;;;;;;;15.22;100.00;101101.19;5114588;28;20019;-50
2023/09/12 03:42:36;;;;;;;0.10;0.10;;;;;;;15.26;100.00;101102.09;5115664;28;20073;-49
2023/09/12 03:45:03;;;;;;;0.10;0.10;;;;;;;15.13;100.00;101098.44;5115514;28;20039;-49
2023/09/12 03:47:28;;;;;;;0.10;0.10;;;;;;;15.04;100.00;101101.78;5114219;28;20027;-52
2023/09/12 03:49:54;;;;;;;0.10;0.10;;;;;;;15.12;100.00;101105.38;5114250;28;20020;-49
2023/09/12 03:52:19;;;;;;;0.00;0.00;;;;;;;15.20;100.00;101102.88;5114296;28;20400;-50
2023/09/12 03:54:44;;;;;;;0.10;0.10;;;;;;;15.15;100.00;101097.63;5114750;28;20054;-50
2023/09/12 03:57:09;;;;;;;0.10;0.10;;;;;;;15.25;100.00;101101.22;5114995;28;20050;-49
2023/09/12 03:59:35;;;;;;;0.10;0.10;;;;;;;15.33;100.00;101108.28;5114157;28;20114;-50
2023/09/12 04:02:03;;;;;;;0.10;0.10;;;;;;;15.41;100.00;101115.28;5114830;28;20019;-51
2023/09/12 04:04:28;;;;;;;0.10;0.10;;;;;;;15.30;100.00;101104.75;5114520;28;20418;-49
2023/09/12 04:06:54;;;;;;;0.10;0.10;;;;;;;15.26;100.00;101102.09;5114275;27;20107;-47
2023/09/12 04:09:20;;;;;;;0.10;0.10;;;;;;;15.24;100.00;101098.63;5114140;28;20095;-46
2023/09/12 04:11:45;;;;;;;0.10;0.10;;;;;;;15.26;100.00;101097.78;5114948;28;20103;-48
2023/09/12 04:14:10;;;;;;;0.10;0.10;;;;;;;15.32;100.00;101102.19;5114279;28;20028;-47
2023/09/12 04:16:36;;;;;;;0.10;0.10;;;;;;;15.40;100.00;101094.50;5114210;28;20076;-47
2023/09/12 04:19:01;;;;;;;0.10;0.10;;;;;;;15.40;100.00;101095.38;5114740;28;20378;-49
2023/09/12 04:21:26;;;;;;;0.10;0.10;;;;;;;15.45;100.00;101098.91;5113756;28;20028;-48
2023/09/12 04:23:52;;;;;;;0.10;0.10;;;;;;;15.52;100.00;101093.78;5114339;28;20032;-50
2023/09/12 04:26:17;;;;;;;0.10;0.10;;;;;;;15.48;100.00;101087.69;5114313;28;20157;-46
2023/09/12 04:28:43;;;;;;;0.10;0.10;;;;;;;15.48;100.00;101092.91;5114002;28;20049;-46
2023/09/12 04:31:08;;;;;;;0.10;0.10;;;;;;;15.48;100.00;101088.56;5114062;28;20019;-50
2023/09/12 04:33:34;;;;;;;0.10;0.10;;;;;;;15.54;100.00;101092.09;5114387;28;20035;-50
2023/09/12 04:36:00;;;;;;;0.10;0.10;;;;;;;15.45;100.00;101098.91;5113645;28;20012;-46
2023/09/12 04:38:26;;;;;;;0.10;0.10;;;;;;;15.55;100.00;101091.25;5113619;28;20081;-50
2023/09/12 04:41:02;;;;;;;0.10;0.10;;;;;;;15.60;100.00;101105.16;5114134;28;20047;-49
2023/09/12 04:43:28;;;;;;;0.10;0.10;;;;;;;15.69;100.00;101105.28;5113327;28;20028;-50
2023/09/12 04:45:53;;;;;;;0.00;0.00;;;;;;;15.71;100.00;101106.19;5114300;28;20026;-50
2023/09/12 04:48:19;;;;;;;0.10;0.10;;;;;;;15.77;100.00;101105.38;5113778;28;20027;-51
2023/09/12 04:50:44;;;;;;;0.10;0.10;;;;;;;15.83;100.00;101109.78;5113117;28;20015;-51
2023/09/12 04:53:10;;;;;;;0.10;0.10;;;;;;;15.90;100.00;101103.81;5114065;28;20115;-50
2023/09/12 04:55:36;;;;;;;0.10;0.10;;;;;;;15.89;100.00;101110.72;5112760;28;20474;-49
2023/09/12 04:58:02;;;;;;;0.10;0.10;;;;;;;15.95;100.00;101107.34;5113691;28;20024;-50
2023/09/12 05:00:27;;;;;;;0.10;0.10;;;;;;;15.93;100.00;101109.06;5113426;28;20038;-50
2023/09/12 05:02:52;;;;;;;0.10;0.10;;;;;;;15.83;100.00;101112.41;5113201;28;20027;-50
2023/09/12 05:05:18;;;;;;;0.03;0.03;;;;;;;15.84;100.00;101111.53;5113248;28;20023;-50
2023/09/12 05:07:43;;;;;;;0.10;0.10;;;;;;;15.85;100.00;101113.31;5113618;28;20043;-49
2023/09/12 05:10:08;;;;;;;0.10;0.10;;;;;;;15.92;100.00;101116.00;5113137;28;20034;-49
2023/09/12 05:12:34;;;;;;;0.10;0.10;;;;;;;15.91;100.00;101122.03;5112945;28;20471;-45
2023/09/12 05:14:59;;;;;;;0.08;0.08;;;;;;;15.97;100.00;101121.22;5113552;28;20027;-48
2023/09/12 05:17:25;;;;;;;0.10;0.10;;;;;;;15.98;100.00;101116.91;5112601;28;20027;-45
2023/09/12 05:19:50;;;;;;;0.10;0.10;;;;;;;15.99;100.00;101116.94;5113192;28;20020;-45
2023/09/12 05:22:15;;;;;;;0.10;0.10;;;;;;;15.86;100.00;101115.91;5113022;28;20072;-45
2023/09/12 05:24:41;;;;;;;0.10;0.10;;;;;;;15.85;100.00;101118.50;5113059;28;20032;-45
2023/09/12 05:27:06;;;;;;;0.03;0.03;;;;;;;15.87;100.00;101117.66;5113357;28;20034;-45
2023/09/12 05:29:31;;;;;;;0.10;0.10;;;;;;;15.98;100.00;101115.19;5113254;28;20050;-46
2023/09/12 05:31:57;;;;;;;0.00;0.00;;;;;;;16.07;100.00;101115.28;5112893;28;20027;-45
2023/09/12 05:34:22;;;;;;;0.10;0.10;;;;;;;15.96;100.00;101109.09;5112763;28;20474;-45
2023/09/12 05:36:47;;;;;;;0.10;0.10;;;;;;;15.92;100.00;101110.78;5113230;28;20052;-46
2023/09/12 05:39:13;;;;;;;0.10;0.10;;;;;;;15.89;100.00;101102.06;5112312;28;20370;-45
2023/09/12 05:41:39;;;;;;;0.10;0.10;;;;;;;15.89;100.00;101107.28;5113175;28;20489;-46
2023/09/12 05:44:05;;;;;;;0.10;0.10;;;;;;;15.90;100.00;101106.44;5113174;28;20027;-45
2023/09/12 05:46:30;;;;;;;0.10;0.10;;;;;;;15.89;100.00;101109.88;5112159;28;20031;-45
2023/09/12 05:48:55;;;;;;;0.10;0.10;;;;;;;15.90;100.00;101098.63;5113282;28;20062;-46
2023/09/12 05:51:21;;;;;;;0.10;0.10;;;;;;;15.96;100.00;101102.16;5112837;28;20034;-51
2023/09/12 05:53:46;;;;;;;0.10;0.10;;;;;;;16.03;100.00;101112.66;5112547;28;20416;-47
2023/09/12 05:56:11;;;;;;;0.00;0.00;;;;;;;16.07;100.00;101110.06;5113138;28;20081;-47
2023/09/12 05:58:41;;;;;;;0.10;0.10;;;;;;;16.11;100.00;101104.06;5113254;28;20032;-45
2023/09/12 06:01:06;;;;;;;0.10;0.10;;;;;;;16.15;100.00;101111.91;5112416;28;20035;-46
2023/09/12 06:03:32;;;;;;;0.10;0.10;;;;;;;16.19;100.00;101111.06;5112719;28;20024;-49
2023/09/12 06:05:57;;;;;;;0.10;0.10;;;;;;;16.25;100.00;101108.53;5112548;28;20019;-45
2023/09/12 06:08:23;;;;;;;0.10;0.10;;;;;;;16.31;100.00;101119.00;5112724;28;20134;-46
2023/09/12 06:10:53;;;;;;;0.10;0.10;;;;;;;16.31;100.00;101113.81;5113075;28;20054;-49
2023/09/12 06:13:18;;;;;;;0.10;0.10;;;;;;;16.33;100.00;101122.47;5115235;28;20032;-47
2023/09/12 06:15:44;;;;;;;0.00;0.00;;;;;;;16.31;100.00;101124.22;5116734;28;20107;-49
2023/09/12 06:18:09;;;;;;;0.00;0.00;;;;;;;16.36;100.00;101126.84;5116858;28;20027;-50
2023/09/12 06:20:34;;;;;;;0.03;0.03;;;;;;;16.37;100.00;101129.50;5115986;28;20102;-46
2023/09/12 06:23:00;;;;;;;0.10;0.10;;;;;;;16.35;100.00;101131.19;5116857;28;20393;-45
2023/09/12 06:25:25;;;;;;;0.00;0.00;;;;;;;16.40;100.00;101136.44;5116748;28;20035;-45
2023/09/12 06:27:50;;;;;;;0.03;0.03;;;;;;;16.39;100.00;101140.75;5116244;28;20031;-46
2023/09/12 06:30:16;;;;;;;0.00;0.00;;;;;;;16.39;100.00;101134.69;5116141;28;20478;-48
2023/09/12 06:32:41;;;;;;;0.08;0.08;;;;;;;16.42;100.00;101133.00;5116425;28;20114;-46
2023/09/12 06:35:10;;;;;;;0.10;0.10;;;;;;;16.44;100.00;101131.28;5115936;28;20118;-48
2023/09/12 06:37:37;;;;;;;0.10;0.10;;;;;;;16.48;100.00;101133.94;5116181;28;20023;-46
2023/09/12 06:40:03;;;;;;;0.10;0.10;;;;;;;16.48;100.00;101131.31;5116611;27;20118;-46
2023/09/12 06:42:28;;;;;;;0.10;0.10;;;;;;;16.51;100.00;101139.16;5115360;28;20047;-47
2023/09/12 06:44:54;;;;;;;0.08;0.08;;;;;;;16.53;100.00;101140.03;5116429;28;20160;-47
2023/09/12 06:47:19;;;;;;;0.10;0.10;;;;;;;16.54;100.00;101149.56;5116170;28;20027;-50
2023/09/12 06:49:44;;;;;;;0.10;0.10;;;;;;;16.60;100.00;101141.84;5115438;28;20494;-46
2023/09/12 06:52:10;;;;;;;0.10;0.10;;;;;;;16.67;100.00;101142.75;5116518;28;20100;-45
2023/09/12 06:54:35;;;;;;;0.10;0.10;;;;;;;16.74;100.00;101140.22;5116010;28;20028;-45
2023/09/12 06:57:01;;;;;;;0.10;0.10;;;;;;;16.78;100.00;101139.41;5115297;28;20043;-47
2023/09/12 06:59:26;;;;;;;0.00;0.00;;;;;;;16.84;100.00;101149.00;5115893;28;20027;-45
2023/09/12 07:01:51;;;;;;;0.00;0.00;;;;;;;16.87;100.00;101145.53;5116120;28;20028;-45
2023/09/12 07:04:17;;;;;;;0.10;0.10;;;;;;;17.00;100.00;101152.63;5114829;28;20450;-47
2023/09/12 07:06:42;;;;;;;0.05;0.05;;;;;;;17.04;100.00;101156.13;5116144;28;20016;-46
2023/09/12 07:09:08;;;;;;;0.00;0.00;;;;;;;17.11;100.00;101143.16;5115564;28;20016;-50
2023/09/12 07:11:34;;;;;;;0.10;0.10;;;;;;;17.17;100.00;101149.28;5115458;28;20062;-46
2023/09/12 07:14:00;;;;;;;0.03;0.03;;;;;;;17.16;100.00;101148.41;5115708;28;20055;-49
2023/09/12 07:16:25;;;;;;;0.00;0.00;;;;;;;17.27;100.00;101153.69;5115051;28;20032;-46
2023/09/12 07:18:50;;;;;;;0.00;0.00;;;;;;;17.39;100.00;101158.09;5115410;28;20348;-45
2023/09/12 07:21:16;;;;;;;0.10;0.10;;;;;;;17.50;100.00;101158.19;5115608;28;20107;-47
2023/09/12 07:23:41;;;;;;;0.00;0.00;;;;;;;17.55;100.00;101157.34;5113836;28;20098;-47
2023/09/12 07:26:12;;;;;;;0.10;0.10;;;;;;;17.57;100.00;101157.34;5115623;28;20370;-48
2023/09/12 07:28:37;;;;;;;0.10;0.10;;;;;;;17.54;100.00;101154.72;5115789;28;20043;-51
2023/09/12 07:31:03;;;;;;;0.00;0.00;;;;;;;17.46;100.00;101159.03;5115250;28;20443;-48
2023/09/12 07:33:28;;;;;;;0.10;0.10;;;;;;;17.44;100.00;101159.88;5114870;28;20031;-46
2023/09/12 07:35:54;;;;;;;0.00;0.00;;;;;;;17.43;100.00;101158.13;5115566;28;20537;-51
2023/09/12 07:38:21;;;;;;;0.05;0.05;;;;;;;17.43;100.00;101167.72;5114688;28;20076;-45
2023/09/12 07:40:46;;;;;;;0.10;0.10;;;;;;;17.49;100.00;101169.47;5115227;28;20106;-50
2023/09/12 07:43:11;;;;;;;0.10;0.10;;;;;;;17.45;100.00;101165.97;5115335;28;20119;-47
2023/09/12 07:45:37;;;;;;;0.10;0.10;;;;;;;17.53;100.00;101163.41;5114458;28;20031;-46
2023/09/12 07:48:07;;;;;;;0.00;0.00;;;;;;;17.64;100.00;101161.75;5115182;27;20023;-48
2023/09/12 07:50:33;;;;;;;0.10;0.10;;;;;;;17.63;100.00;101165.19;5114863;28;20036;-46
2023/09/12 07:52:58;;;;;;;0.10;0.10;;;;;;;17.76;100.00;101167.00;5114120;28;20031;-50
2023/09/12 07:55:23;;;;;;;0.05;0.05;;;;;;;17.89;100.00;101165.31;5114478;28;20411;-45
2023/09/12 07:57:48;;;;;;;0.00;0.00;;;;;;;18.00;100.00;101170.63;5115287;28;20359;-46
2023/09/12 08:00:14;;;;;;;0.00;0.00;;;;;;;18.12;100.00;101168.94;5113616;28;20030;-48
2023/09/12 08:02:39;;;;;;;0.00;0.00;;;;;;;18.29;100.00;101159.41;5114741;27;20416;-45
2023/09/12 08:05:06;;;;;;;0.10;0.10;;;;;;;18.40;100.00;101162.91;5114654;28;20035;-50
2023/09/12 08:07:31;;;;;;;0.10;0.10;;;;;;;18.39;100.00;101163.78;5113678;28;20432;-50
2023/09/12 08:09:57;;;;;;;0.00;0.00;;;;;;;18.53;100.00;101162.97;5114703;28;20366;-51
2023/09/12 08:12:25;;;;;;;0.00;0.00;;;;;;;18.62;100.00;101168.19;5114070;28;20039;-50
2023/09/12 08:14:51;;;;;;;0.00;0.00;;;;;;;18.71;100.00;101169.94;5114308;28;20036;-50
2023/09/12 08:17:16;;;;;;;0.00;0.00;;;;;;;18.92;100.00;101174.34;5114179;28;20024;-50
2023/09/12 08:19:42;;;;;;;0.00;0.00;;;;;;;18.94;100.00;101177.81;5113884;28;20020;-50
2023/09/12 08:22:08;;;;;;;0.00;0.00;;;;;;;19.06;100.00;101188.25;5114050;28;20043;-51
2023/09/12 08:24:34;;;;;;;0.00;0.00;;;;;;;19.11;100.00;101195.22;5114127;28;20020;-49
2023/09/12 08:27:00;;;;;;;0.00;0.00;;;;;;;19.19;100.00;101194.34;5113827;28;20024;-46
2023/09/12 08:29:28;;;;;;;0.00;0.00;;;;;;;19.30;100.00;101194.38;5113762;28;20020;-48
2023/09/12 08:31:54;;;;;;;0.00;0.00;;;;;;;19.40;100.00;101193.44;5114222;28;20489;-45
2023/09/12 08:34:20;;;;;;;0.08;0.08;;;;;;;19.57;100.00;101195.16;5113359;28;20032;-46
2023/09/12 08:36:46;;;;;;;0.00;0.00;;;;;;;19.72;100.00;101202.13;5113801;28;20413;-48
2023/09/12 08:39:16;;;;;;;0.00;0.00;;;;;;;19.91;100.00;101213.44;5114039;28;20447;-46
2023/09/12 08:41:47;;;;;;;0.00;0.00;;;;;;;19.97;100.00;101216.00;5113491;28;20027;-46
2023/09/12 08:44:13;;;;;;;0.00;0.00;;;;;;;20.03;100.00;101215.13;5113722;28;20024;-46
2023/09/12 08:46:41;;;;;;;0.00;0.00;;;;;;;20.17;100.00;101220.31;5114014;28;20081;-45
2023/09/12 08:49:09;;;;;;;0.00;0.00;;;;;;;20.39;100.00;101215.84;5113361;28;20031;-45
2023/09/12 08:51:34;;;;;;;;;;;;;;;20.60;100.00;101219.22;5114287;28;20068;-46
2023/09/12 08:54:00;;;;;;;0.00;0.00;;;;;;;20.60;100.00;101221.84;5113819;28;19911;-51
2023/09/12 08:56:26;;;;;;;0.00;0.00;;;;;;;20.70;100.00;101224.41;5112645;28;20536;-50
2023/09/12 08:58:54;;;;;;;0.00;0.00;;;;;;;20.88;100.00;101220.78;5113740;28;20035;-45
2023/09/12 09:01:20;;;;;;;0.00;0.00;;;;;;;20.99;100.00;101223.34;5113414;28;20030;-49
2023/09/12 09:03:47;;;;;;;0.00;0.00;;;;;;;21.12;100.00;101220.63;5113134;28;20069;-45
2023/09/12 09:06:14;;;;;;;0.00;0.00;;;;;;;21.34;100.00;101227.44;5113532;28;20027;-45
2023/09/12 09:08:41;;;;;;;0.00;0.00;;;;;;;21.47;100.00;101233.41;5113364;28;20030;-48
2023/09/12 09:11:06;;;;;;;0.00;0.00;;;;;;;21.50;100.00;101236.00;5113254;28;20028;-50
2023/09/12 09:13:32;;;;;;;0.00;0.00;;;;;;;21.52;100.00;101226.38;5113189;28;20116;-50
2023/09/12 09:16:17;;;;;;;0.00;0.00;;;;;;;21.55;100.00;101236.00;5113098;28;20023;-49
2023/09/12 09:18:59;;;;;;;0.00;0.00;;;;;;;21.29;100.00;101236.19;5113463;28;20027;-47
2023/09/12 09:21:31;;;;;;;0.00;0.00;;;;;;;21.07;100.00;101232.88;5113350;28;20030;-45
2023/09/12 09:23:59;;;;;;;0.00;0.00;;;;;;;21.01;100.00;101223.34;5112741;28;20031;-49
2023/09/12 09:26:25;;;;;;;0.00;0.00;;;;;;;21.36;100.00;101212.53;5113074;28;20023;-45
2023/09/12 09:29:10;;;;;;;0.00;0.00;;;;;;;21.84;100.00;101205.94;5113575;28;20024;-46
2023/09/12 09:31:39;;;;;;;0.00;0.00;;;;;;;21.98;100.00;101201.41;5112306;28;20080;-50
2023/09/12 09:34:11;;;;;;;0.00;0.00;;;;;;;22.19;100.00;101197.66;5113166;28;20161;-47
2023/09/12 09:36:36;;;;;;;0.00;0.00;;;;;;;22.55;100.00;101199.81;5113401;28;20111;-45
2023/09/12 09:39:04;;;;;;;0.00;0.00;;;;;;;23.42;100.00;101207.19;5112757;28;20435;-46
2023/09/12 09:41:30;;;;;;;0.00;0.00;;;;;;;23.74;100.00;101205.69;5113174;28;20073;-50
2023/09/12 09:43:55;;;;;;;0.00;0.00;;;;;;;24.13;100.00;101202.31;5112723;28;20458;-50
2023/09/12 09:46:21;;;;;;;0.00;0.00;;;;;;;24.04;98.41;101211.28;5112752;28;20024;-49
2023/09/12 09:48:50;;;;;;;0.00;0.00;;;;;;;24.77;95.78;101207.91;5117180;28;20383;-47
2023/09/12 09:51:16;;;;;;;0.00;0.00;;;;;;;25.52;97.36;101198.16;5116853;28;20103;-47
2023/09/12 09:53:43;;;;;;;0.00;0.00;;;;;;;25.63;88.37;101202.22;5117454;28;20123;-50
2023/09/12 09:56:15;;;;;;;0.00;0.00;;;;;;;25.97;83.90;101195.13;5117342;28;20046;-50
2023/09/12 09:58:53;;;;;;;0.00;0.00;;;;;;;27.02;84.64;101206.91;5116743;28;20374;-46
2023/09/12 10:01:22;;;;;;;0.00;0.00;;;;;;;26.99;81.50;101202.56;5116814;28;20374;-45
2023/09/12 10:03:49;;;;;;;0.00;0.00;;;;;;;27.40;73.25;101208.25;5117429;28;20102;-46
2023/09/12 10:06:17;;;;;;;0.00;0.00;;;;;;;27.80;73.57;101205.97;5116096;28;20036;-45
2023/09/12 10:08:45;;;;;;;0.00;0.00;;;;;;;28.18;70.39;101221.34;5117392;27;20020;-45
2023/09/12 10:11:16;;;;;;;0.00;0.00;;;;;;;28.08;68.73;101223.47;5117168;28;20030;-48
2023/09/12 10:13:49;;;;;;;0.00;0.00;;;;;;;28.43;65.76;101215.94;5116147;28;20031;-47
2023/09/12 10:16:16;;;;;;;0.00;0.00;;;;;;;27.85;64.85;101219.91;5116611;28;20473;-50
2023/09/12 10:18:50;;;;;;;0.00;0.00;;;;;;;28.72;65.09;101211.31;5117099;27;20024;-46
2023/09/12 10:21:21;;;;;;;0.00;0.00;;;;;;;29.13;61.78;101206.06;5115841;28;20020;-49
2023/09/12 10:23:50;;;;;;;0.00;0.00;;;;;;;29.08;58.36;101202.75;5116896;28;20020;-51
2023/09/12 10:26:17;;;;;;;0.00;0.00;;;;;;;29.23;57.68;101207.38;5115812;28;20094;-46
2023/09/12 10:28:43;;;;;;;0.00;0.00;;;;;;;29.63;52.57;101206.59;5116844;27;20023;-51
2023/09/12 10:31:11;;;;;;;0.00;0.00;;;;;;;29.67;50.58;101210.81;5116763;28;20371;-46
2023/09/12 10:33:37;;;;;;;0.00;0.00;;;;;;;29.84;51.60;101205.63;5116054;28;20038;-46
2023/09/12 10:36:08;;;;;;;0.00;0.00;;;;;;;29.94;55.30;101202.56;5116472;28;20024;-50
2023/09/12 10:38:40;;;;;;;0.00;0.00;;;;;;;30.33;51.12;101201.59;5116207;28;20516;-47
2023/09/12 10:41:09;;;;;;;0.00;0.00;;;;;;;30.20;51.22;101196.88;5115670;27;20059;-50
2023/09/12 10:43:35;;;;;;;0.00;0.00;;;;;;;30.22;50.30;101202.13;5116029;28;20474;-51
2023/09/12 10:46:03;;;;;;;;;;;;;;;31.20;57.54;101196.44;5116988;28;20099;-51
2023/09/12 10:48:29;;;;;;;0.00;0.00;;;;;;;30.20;48.89;101190.69;5115269;28;19908;-46
2023/09/12 10:50:58;;;;;;;0.00;0.00;;;;;;;30.94;46.79;101194.25;5116288;28;20106;-46
2023/09/12 10:53:26;;;;;;;0.00;0.00;;;;;;;30.69;46.29;101200.78;5115840;28;20030;-49
2023/09/12 10:56:00;;;;;;;0.00;0.00;;;;;;;30.65;49.50;101197.44;5115406;28;20040;-51
2023/09/12 10:58:26;;;;;;;0.00;0.00;;;;;;;31.10;48.73;101195.19;5115732;28;20028;-50
2023/09/12 11:01:26;;;;;;;0.00;0.00;;;;;;;31.26;50.83;101194.41;5116076;28;20474;-47
2023/09/12 11:03:51;;;;;;;0.00;0.00;;;;;;;31.50;47.80;101202.91;5115791;28;20024;-47
2023/09/12 11:06:22;;;;;;;0.00;0.00;;;;;;;30.59;48.14;101210.16;5115875;28;20041;-50
2023/09/12 11:09:13;;;;;;;0.00;0.00;;;;;;;31.63;50.23;101209.34;5115714;27;20027;-50
2023/09/12 11:11:38;;;;;;;0.00;0.00;;;;;;;31.72;45.48;101199.97;5115735;28;20028;-46
2023/09/12 11:14:05;;;;;;;0.00;0.00;;;;;;;32.23;42.75;101197.22;5115909;28;20538;-46
2023/09/12 11:16:30;;;;;;;0.00;0.00;;;;;;;32.39;44.48;101202.53;5114651;28;20134;-47